sensor_id;sensor_type;location;lat;lon;timestamp;pressure;altitude;pressure_sealevel;temperature;humidity
33697;BME280;20031;43.416;23.232;2022-12-05T00:02:18;101314.47;;;4.19;96.36
33697;BME280;20031;43.416;23.232;2022-12-05T00:04:44;101312.78;;;4.18;96.47
33697;BME280;20031;43.416;23.232;2022-12-05T00:07:09;101312.78;;;4.18;96.26
33697;BME280;20031;43.416;23.232;2022-12-05T00:09:35;101316.19;;;4.19;96.89
33697;BME280;20031;43.416;23.232;2022-12-05T00:12:00;101318.84;;;4.17;96.19
33697;BME280;20031;43.416;23.232;2022-12-05T00:14:25;101318.84;;;4.17;96.55
33697;BME280;20031;43.416;23.232;2022-12-05T00:16:51;101314.63;;;4.16;96.35
33697;BME280;20031;43.416;23.232;2022-12-05T00:19:16;101319.78;;;4.16;96.27
33697;BME280;20031;43.416;23.232;2022-12-05T00:21:43;101324.00;;;4.17;96.85
33697;BME280;20031;43.416;23.232;2022-12-05T00:24:12;101318.03;;;4.17;96.13
33697;BME280;20031;43.416;23.232;2022-12-05T00:26:38;101323.91;;;4.19;96.70
33697;BME280;20031;43.416;23.232;2022-12-05T00:29:03;101326.59;;;4.17;96.14
33697;BME280;20031;43.416;23.232;2022-12-05T00:31:29;101320.63;;;4.17;96.64
33697;BME280;20031;43.416;23.232;2022-12-05T00:33:55;101317.13;;;4.18;96.61
33697;BME280;20031;43.416;23.232;2022-12-05T00:36:25;101327.53;;;4.16;96.54
33697;BME280;20031;43.416;23.232;2022-12-05T00:38:51;101337.00;;;4.16;96.31
33697;BME280;20031;43.416;23.232;2022-12-05T00:41:22;101326.78;;;4.14;96.62
33697;BME280;20031;43.416;23.232;2022-12-05T00:43:48;101323.19;;;4.17;96.80
33697;BME280;20031;43.416;23.232;2022-12-05T00:46:21;101325.59;;;4.20;96.35
33697;BME280;20031;43.416;23.232;2022-12-05T00:48:46;101310.94;;;4.20;96.52
33697;BME280;20031;43.416;23.232;2022-12-05T00:51:18;101322.09;;;4.21;96.02
33697;BME280;20031;43.416;23.232;2022-12-05T00:53:44;101317.78;;;4.21;96.24
33697;BME280;20031;43.416;23.232;2022-12-05T00:56:13;101326.31;;;4.22;96.64
33697;BME280;20031;43.416;23.232;2022-12-05T00:58:39;101319.53;;;4.21;96.22
33697;BME280;20031;43.416;23.232;2022-12-05T01:01:13;101320.44;;;4.20;96.37
33697;BME280;20031;43.416;23.232;2022-12-05T01:03:40;101320.53;;;4.18;96.47
33697;BME280;20031;43.416;23.232;2022-12-05T01:06:06;101311.03;;;4.19;96.75
33697;BME280;20031;43.416;23.232;2022-12-05T01:08:33;101316.19;;;4.19;96.34
33697;BME280;20031;43.416;23.232;2022-12-05T01:10:59;101311.97;;;4.18;96.25
33697;BME280;20031;43.416;23.232;2022-12-05T01:13:25;101325.78;;;4.17;96.21
33697;BME280;20031;43.416;23.232;2022-12-05T01:15:51;101318.03;;;4.17;96.07
33697;BME280;20031;43.416;23.232;2022-12-05T01:18:18;101317.22;;;4.16;96.09
33697;BME280;20031;43.416;23.232;2022-12-05T01:20:44;101318.84;;;4.17;96.53
33697;BME280;20031;43.416;23.232;2022-12-05T01:23:10;101318.03;;;4.17;96.09
33697;BME280;20031;43.416;23.232;2022-12-05T01:25:41;101316.28;;;4.17;96.15
33697;BME280;20031;43.416;23.232;2022-12-05T01:28:07;101320.63;;;4.17;96.48
33697;BME280;20031;43.416;23.232;2022-12-05T01:30:37;101316.19;;;4.19;96.47
33697;BME280;20031;43.416;23.232;2022-12-05T01:33:04;101310.22;;;4.18;96.21
33697;BME280;20031;43.416;23.232;2022-12-05T01:35:33;101311.13;;;4.17;96.68
33697;BME280;20031;43.416;23.232;2022-12-05T01:38:00;101306.81;;;4.18;96.33
33697;BME280;20031;43.416;23.232;2022-12-05T01:40:25;101311.13;;;4.17;95.86
33697;BME280;20031;43.416;23.232;2022-12-05T01:42:51;101306.81;;;4.18;96.50
33697;BME280;20031;43.416;23.232;2022-12-05T01:47:57;101303.31;;;4.19;95.83
33697;BME280;20031;43.416;23.232;2022-12-05T01:50:23;101295.56;;;4.19;95.78
33697;BME280;20031;43.416;23.232;2022-12-05T01:52:48;101293.94;;;4.18;96.13
33697;BME280;20031;43.416;23.232;2022-12-05T01:55:16;101298.16;;;4.19;96.37
33697;BME280;20031;43.416;23.232;2022-12-05T01:57:43;101292.81;;;4.22;96.23
33697;BME280;20031;43.416;23.232;2022-12-05T02:00:12;101294.56;;;4.21;95.82
33697;BME280;20031;43.416;23.232;2022-12-05T02:02:55;101291.25;;;4.19;96.27
33697;BME280;20031;43.416;23.232;2022-12-05T02:05:33;101291.19;;;4.21;96.47
33697;BME280;20031;43.416;23.232;2022-12-05T02:08:01;101289.50;;;4.20;95.82
33697;BME280;20031;43.416;23.232;2022-12-05T02:10:29;101291.19;;;4.21;96.38
33697;BME280;20031;43.416;23.232;2022-12-05T02:13:06;101289.50;;;4.20;96.15
33697;BME280;20031;43.416;23.232;2022-12-05T02:21:32;101285.25;;;4.19;95.86
33697;BME280;20031;43.416;23.232;2022-12-05T02:24:24;101284.25;;;4.21;95.87
33697;BME280;20031;43.416;23.232;2022-12-05T02:40:56;101274.44;;;4.28;95.99
33697;BME280;20031;43.416;23.232;2022-12-05T02:45:59;101269.09;;;4.31;95.52
33697;BME280;20031;43.416;23.232;2022-12-05T02:48:27;101269.09;;;4.31;95.99
33697;BME280;20031;43.416;23.232;2022-12-05T02:50:56;101263.94;;;4.31;95.42
33697;BME280;20031;43.416;23.232;2022-12-05T02:53:24;101271.69;;;4.31;95.97
33697;BME280;20031;43.416;23.232;2022-12-05T02:55:52;101263.19;;;4.29;95.49
33697;BME280;20031;43.416;23.232;2022-12-05T02:58:22;101257.13;;;4.30;95.46
33697;BME280;20031;43.416;23.232;2022-12-05T03:00:53;101253.63;;;4.31;95.40
33697;BME280;20031;43.416;23.232;2022-12-05T03:03:21;101255.34;;;4.30;95.53
33697;BME280;20031;43.416;23.232;2022-12-05T03:08:22;101258.78;;;4.31;95.66
33697;BME280;20031;43.416;23.232;2022-12-05T03:10:50;101258.03;;;4.29;95.66
33697;BME280;20031;43.416;23.232;2022-12-05T03:13:29;101257.22;;;4.28;95.06
33697;BME280;20031;43.416;23.232;2022-12-05T03:16:00;101259.69;;;4.30;95.55
33697;BME280;20031;43.416;23.232;2022-12-05T03:18:29;101262.28;;;4.30;95.27
33697;BME280;20031;43.416;23.232;2022-12-05T03:21:10;101259.69;;;4.30;95.20
33697;BME280;20031;43.416;23.232;2022-12-05T03:23:52;101255.44;;;4.29;94.95
33697;BME280;20031;43.416;23.232;2022-12-05T03:28:53;101258.03;;;4.29;95.58
33697;BME280;20031;43.416;23.232;2022-12-05T03:31:37;101274.44;;;4.28;94.91
33697;BME280;20031;43.416;23.232;2022-12-05T03:34:06;101264.13;;;4.28;95.13
33697;BME280;20031;43.416;23.232;2022-12-05T03:36:41;101271.94;;;4.26;95.44
33697;BME280;20031;43.416;23.232;2022-12-05T03:39:14;101271.09;;;4.26;95.42
33697;BME280;20031;43.416;23.232;2022-12-05T03:42:10;101272.94;;;4.24;95.28
33697;BME280;20031;43.416;23.232;2022-12-05T03:44:53;101275.63;;;4.22;95.37
33697;BME280;20031;43.416;23.232;2022-12-05T03:50:28;101274.78;;;4.22;95.45
33697;BME280;20031;43.416;23.232;2022-12-05T03:53:04;101271.28;;;4.23;95.08
33697;BME280;20031;43.416;23.232;2022-12-05T03:55:34;101273.84;;;4.23;95.51
33697;BME280;20031;43.416;23.232;2022-12-05T03:58:05;101272.09;;;4.23;95.39
33697;BME280;20031;43.416;23.232;2022-12-05T04:00:34;101283.16;;;4.25;95.48
33697;BME280;20031;43.416;23.232;2022-12-05T04:06:07;101271.94;;;4.26;95.48
33697;BME280;20031;43.416;23.232;2022-12-05T04:08:37;101279.59;;;4.28;95.58
33697;BME280;20031;43.416;23.232;2022-12-05T04:11:11;101270.19;;;4.27;95.04
33697;BME280;20031;43.416;23.232;2022-12-05T04:14:00;101271.84;;;4.28;95.41
33697;BME280;20031;43.416;23.232;2022-12-05T04:16:37;101278.94;;;4.24;95.16
33697;BME280;20031;43.416;23.232;2022-12-05T04:22:29;101279.00;;;4.23;95.52
33697;BME280;20031;43.416;23.232;2022-12-05T04:24:56;101277.34;;;4.22;95.00
33697;BME280;20031;43.416;23.232;2022-12-05T04:33:15;101272.94;;;4.24;95.47
33697;BME280;20031;43.416;23.232;2022-12-05T04:36:21;101274.69;;;4.23;95.51
33697;BME280;20031;43.416;23.232;2022-12-05T04:39:12;101279.84;;;4.23;95.46
33697;BME280;20031;43.416;23.232;2022-12-05T04:41:52;101278.19;;;4.22;95.63
33697;BME280;20031;43.416;23.232;2022-12-05T04:44:24;101275.63;;;4.22;95.50
33697;BME280;20031;43.416;23.232;2022-12-05T04:46:52;101283.25;;;4.24;95.49
33697;BME280;20031;43.416;23.232;2022-12-05T04:49:23;101289.31;;;4.23;95.43
33697;BME280;20031;43.416;23.232;2022-12-05T04:51:54;101285.94;;;4.22;95.31
33697;BME280;20031;43.416;23.232;2022-12-05T04:54:35;101294.38;;;4.24;96.06
33697;BME280;20031;43.416;23.232;2022-12-05T05:00:06;101295.16;;;4.26;95.88
33697;BME280;20031;43.416;23.232;2022-12-05T05:02:38;101293.47;;;4.25;95.82
33697;BME280;20031;43.416;23.232;2022-12-05T05:05:08;101296.88;;;4.26;95.49
33697;BME280;20031;43.416;23.232;2022-12-05T05:07:46;101299.53;;;4.24;95.96
33697;BME280;20031;43.416;23.232;2022-12-05T05:10:15;101299.63;;;4.23;96.07
33697;BME280;20031;43.416;23.232;2022-12-05T05:12:41;101297.06;;;4.23;95.90
33697;BME280;20031;43.416;23.232;2022-12-05T05:15:07;101306.38;;;4.25;96.10
33697;BME280;20031;43.416;23.232;2022-12-05T05:17:33;101302.13;;;4.24;96.13
33697;BME280;20031;43.416;23.232;2022-12-05T05:19:58;101308.03;;;4.26;96.34
33697;BME280;20031;43.416;23.232;2022-12-05T05:22:47;101308.09;;;4.25;96.15
33697;BME280;20031;43.416;23.232;2022-12-05T05:25:12;101313.25;;;4.25;95.68
33697;BME280;20031;43.416;23.232;2022-12-05T05:27:38;101303.88;;;4.24;96.42
33697;BME280;20031;43.416;23.232;2022-12-05T05:30:04;101309.78;;;4.26;96.33
33697;BME280;20031;43.416;23.232;2022-12-05T05:32:31;101309.50;;;4.30;96.40
33697;BME280;20031;43.416;23.232;2022-12-05T05:34:57;101311.25;;;4.30;96.42
33697;BME280;20031;43.416;23.232;2022-12-05T05:37:22;101316.31;;;4.31;96.13
33697;BME280;20031;43.416;23.232;2022-12-05T05:39:48;101319.63;;;4.33;96.30
33697;BME280;20031;43.416;23.232;2022-12-05T05:42:13;101316.97;;;4.35;96.39
33697;BME280;20031;43.416;23.232;2022-12-05T05:44:39;101312.56;;;4.37;96.68
33697;BME280;20031;43.416;23.232;2022-12-05T05:47:04;101313.38;;;4.37;96.19
33697;BME280;20031;43.416;23.232;2022-12-05T05:49:29;101318.44;;;4.39;96.19
33697;BME280;20031;43.416;23.232;2022-12-05T05:51:55;101314.88;;;4.41;96.10
33697;BME280;20031;43.416;23.232;2022-12-05T05:54:20;101317.38;;;4.43;96.61
33697;BME280;20031;43.416;23.232;2022-12-05T05:56:46;101320.66;;;4.45;96.74
33697;BME280;20031;43.416;23.232;2022-12-05T05:59:11;101319.03;;;4.44;96.55
33697;BME280;20031;43.416;23.232;2022-12-05T06:01:37;101328.41;;;4.45;96.46
33697;BME280;20031;43.416;23.232;2022-12-05T06:04:02;101322.44;;;4.44;96.15
33697;BME280;20031;43.416;23.232;2022-12-05T06:06:27;101330.25;;;4.43;96.61
33697;BME280;20031;43.416;23.232;2022-12-05T06:08:53;101324.19;;;4.44;96.63
33697;BME280;20031;43.416;23.232;2022-12-05T06:11:24;101330.16;;;4.44;96.12
33697;BME280;20031;43.416;23.232;2022-12-05T06:13:50;101327.59;;;4.44;96.40
33697;BME280;20031;43.416;23.232;2022-12-05T06:16:17;101327.50;;;4.46;96.71
33697;BME280;20031;43.416;23.232;2022-12-05T06:18:43;101338.56;;;4.48;96.48
33697;BME280;20031;43.416;23.232;2022-12-05T06:21:10;101334.31;;;4.47;96.09
33697;BME280;20031;43.416;23.232;2022-12-05T06:23:36;101329.06;;;4.48;96.29
33697;BME280;20031;43.416;23.232;2022-12-05T06:26:03;101336.63;;;4.51;96.54
33697;BME280;20031;43.416;23.232;2022-12-05T06:28:29;101334.78;;;4.53;96.40
33697;BME280;20031;43.416;23.232;2022-12-05T06:30:54;101333.78;;;4.55;96.54
33697;BME280;20031;43.416;23.232;2022-12-05T06:33:20;101337.03;;;4.59;96.51
33697;BME280;20031;43.416;23.232;2022-12-05T06:35:46;101340.25;;;4.62;96.99
33697;BME280;20031;43.416;23.232;2022-12-05T06:38:11;101338.47;;;4.63;96.91
33697;BME280;20031;43.416;23.232;2022-12-05T06:40:42;101340.25;;;4.62;96.94
33697;BME280;20031;43.416;23.232;2022-12-05T06:43:08;101343.53;;;4.64;96.81
33697;BME280;20031;43.416;23.232;2022-12-05T06:45:36;101341.81;;;4.65;96.37
33697;BME280;20031;43.416;23.232;2022-12-05T06:48:02;101333.31;;;4.63;96.47
33697;BME280;20031;43.416;23.232;2022-12-05T06:50:27;101331.69;;;4.62;96.18
33697;BME280;20031;43.416;23.232;2022-12-05T06:52:53;101335.00;;;4.64;96.90
33697;BME280;20031;43.416;23.232;2022-12-05T06:55:18;101342.63;;;4.65;96.88
33697;BME280;20031;43.416;23.232;2022-12-05T06:57:44;101335.66;;;4.67;96.35
33697;BME280;20031;43.416;23.232;2022-12-05T07:00:10;101334.72;;;4.68;96.76
33697;BME280;20031;43.416;23.232;2022-12-05T07:02:54;101335.56;;;4.69;96.55
33697;BME280;20031;43.416;23.232;2022-12-05T07:05:19;101338.78;;;4.72;97.10
33697;BME280;20031;43.416;23.232;2022-12-05T07:07:45;101333.63;;;4.72;96.55
33697;BME280;20031;43.416;23.232;2022-12-05T07:10:11;101340.25;;;4.76;97.02
33697;BME280;20031;43.416;23.232;2022-12-05T07:12:36;101336.59;;;4.80;96.60
33697;BME280;20031;43.416;23.232;2022-12-05T07:15:02;101338.88;;;4.85;96.91
33697;BME280;20031;43.416;23.232;2022-12-05T07:17:27;101337.03;;;4.87;96.64
33697;BME280;20031;43.416;23.232;2022-12-05T07:19:53;101339.53;;;4.88;96.86
33697;BME280;20031;43.416;23.232;2022-12-05T07:22:21;101335.75;;;4.94;96.77
33697;BME280;20031;43.416;23.232;2022-12-05T07:24:47;101337.31;;;4.96;96.60
33697;BME280;20031;43.416;23.232;2022-12-05T07:27:13;101339.81;;;4.98;96.63
33697;BME280;20031;43.416;23.232;2022-12-05T07:29:39;101333.66;;;5.00;96.53
33697;BME280;20031;43.416;23.232;2022-12-05T07:32:05;101333.47;;;5.03;96.91
33697;BME280;20031;43.416;23.232;2022-12-05T07:34:31;101336.75;;;5.05;96.73
33697;BME280;20031;43.416;23.232;2022-12-05T07:36:57;101341.09;;;5.05;96.24
33697;BME280;20031;43.416;23.232;2022-12-05T07:39:22;101340.91;;;5.07;96.34
33697;BME280;20031;43.416;23.232;2022-12-05T07:41:47;101344.88;;;5.13;96.30
33697;BME280;20031;43.416;23.232;2022-12-05T07:44:13;101344.78;;;5.14;96.35
33697;BME280;20031;43.416;23.232;2022-12-05T07:46:39;101345.06;;;5.10;96.12
33697;BME280;20031;43.416;23.232;2022-12-05T07:49:05;101336.94;;;5.16;95.83
33697;BME280;20031;43.416;23.232;2022-12-05T07:51:31;101343.03;;;5.15;96.43
33697;BME280;20031;43.416;23.232;2022-12-05T07:53:58;101344.50;;;5.19;95.77
33697;BME280;20031;43.416;23.232;2022-12-05T07:56:24;101338.25;;;5.23;95.78
33697;BME280;20031;43.416;23.232;2022-12-05T07:58:50;101340.81;;;5.23;95.89
33697;BME280;20031;43.416;23.232;2022-12-05T08:01:16;101344.78;;;5.28;95.74
33697;BME280;20031;43.416;23.232;2022-12-05T08:03:43;101344.50;;;5.33;95.74
33697;BME280;20031;43.416;23.232;2022-12-05T08:06:12;101347.72;;;5.36;95.67
33697;BME280;20031;43.416;23.232;2022-12-05T08:08:38;101351.47;;;5.45;95.11
33697;BME280;20031;43.416;23.232;2022-12-05T08:11:05;101353.59;;;5.52;95.74
33697;BME280;20031;43.416;23.232;2022-12-05T08:13:32;101359.94;;;5.60;95.55
33697;BME280;20031;43.416;23.232;2022-12-05T08:16:09;101355.13;;;5.68;94.94
33697;BME280;20031;43.416;23.232;2022-12-05T08:18:34;101361.78;;;5.72;95.03
33697;BME280;20031;43.416;23.232;2022-12-05T08:21:05;101359.09;;;5.74;94.78
33697;BME280;20031;43.416;23.232;2022-12-05T08:23:32;101354.75;;;5.88;94.94
33697;BME280;20031;43.416;23.232;2022-12-05T08:26:06;101353.44;;;5.95;94.77
33697;BME280;20031;43.416;23.232;2022-12-05T08:28:32;101344.56;;;5.99;94.05
33697;BME280;20031;43.416;23.232;2022-12-05T08:31:05;101356.22;;;6.05;93.91
33697;BME280;20031;43.416;23.232;2022-12-05T08:33:31;101350.59;;;6.12;94.22
33697;BME280;20031;43.416;23.232;2022-12-05T08:36:00;101348.78;;;6.00;93.28
33697;BME280;20031;43.416;23.232;2022-12-05T08:38:26;101349.06;;;5.96;92.56
33697;BME280;20031;43.416;23.232;2022-12-05T08:40:52;101339.69;;;6.07;93.19
33697;BME280;20031;43.416;23.232;2022-12-05T08:43:17;101337.75;;;6.10;92.99
33697;BME280;20031;43.416;23.232;2022-12-05T08:45:52;101351.94;;;6.17;92.71
33697;BME280;20031;43.416;23.232;2022-12-05T08:48:18;101348.72;;;6.14;92.14
33697;BME280;20031;43.416;23.232;2022-12-05T08:50:44;101349.53;;;6.14;91.62
33697;BME280;20031;43.416;23.232;2022-12-05T08:53:10;101345.13;;;6.16;91.49
33697;BME280;20031;43.416;23.232;2022-12-05T08:55:36;101349.13;;;6.08;91.09
33697;BME280;20031;43.416;23.232;2022-12-05T08:58:02;101345.38;;;6.00;90.46
33697;BME280;20031;43.416;23.232;2022-12-05T09:00:28;101345.38;;;6.00;90.27
33697;BME280;20031;43.416;23.232;2022-12-05T09:02:53;101341.00;;;6.00;90.85
33697;BME280;20031;43.416;23.232;2022-12-05T09:05:19;101339.09;;;6.04;90.44
33697;BME280;20031;43.416;23.232;2022-12-05T09:07:44;101342.38;;;6.06;90.34
33697;BME280;20031;43.416;23.232;2022-12-05T09:10:10;101337.88;;;6.09;90.17
33697;BME280;20031;43.416;23.232;2022-12-05T09:12:38;101330.63;;;6.14;89.77
33697;BME280;20031;43.416;23.232;2022-12-05T09:15:08;101322.88;;;6.14;89.80
33697;BME280;20031;43.416;23.232;2022-12-05T09:17:35;101325.34;;;6.15;89.38
33697;BME280;20031;43.416;23.232;2022-12-05T09:20:00;101319.56;;;6.12;89.53
33697;BME280;20031;43.416;23.232;2022-12-05T09:22:26;101313.75;;;6.08;88.94
33697;BME280;20031;43.416;23.232;2022-12-05T09:24:52;101329.16;;;6.10;89.39
33697;BME280;20031;43.416;23.232;2022-12-05T09:27:17;101327.53;;;6.09;89.25
33697;BME280;20031;43.416;23.232;2022-12-05T09:29:43;101326.47;;;6.11;88.74
33697;BME280;20031;43.416;23.232;2022-12-05T09:32:09;101313.34;;;6.14;88.89
33697;BME280;20031;43.416;23.232;2022-12-05T09:34:36;101321.00;;;6.16;89.29
33697;BME280;20031;43.416;23.232;2022-12-05T09:37:03;101323.56;;;6.16;89.14
33697;BME280;20031;43.416;23.232;2022-12-05T09:39:28;101320.81;;;6.19;88.81
33697;BME280;20031;43.416;23.232;2022-12-05T09:50:28;101313.72;;;6.35;88.22
33697;BME280;20031;43.416;23.232;2022-12-05T09:58:01;101303.16;;;6.38;87.61
33697;BME280;20031;43.416;23.232;2022-12-05T10:00:28;101297.78;;;6.41;88.24
33697;BME280;20031;43.416;23.232;2022-12-05T10:03:20;101299.34;;;6.43;87.98
33697;BME280;20031;43.416;23.232;2022-12-05T10:09:11;101294.78;;;6.47;87.37
33697;BME280;20031;43.416;23.232;2022-12-05T10:17:02;101287.72;;;6.36;86.98
33697;BME280;20031;43.416;23.232;2022-12-05T10:19:34;101287.09;;;6.33;86.45
33697;BME280;20031;43.416;23.232;2022-12-05T10:22:15;101288.16;;;6.30;86.95
33697;BME280;20031;43.416;23.232;2022-12-05T10:24:46;101278.50;;;6.32;86.96
33697;BME280;20031;43.416;23.232;2022-12-05T10:27:37;101269.00;;;6.33;86.77
33697;BME280;20031;43.416;23.232;2022-12-05T10:30:12;101274.50;;;6.41;87.25
33697;BME280;20031;43.416;23.232;2022-12-05T10:32:54;101273.25;;;6.46;86.82
33697;BME280;20031;43.416;23.232;2022-12-05T10:35:25;101269.53;;;6.50;86.98
33697;BME280;20031;43.416;23.232;2022-12-05T10:37:53;101271.81;;;6.55;86.75
33697;BME280;20031;43.416;23.232;2022-12-05T10:40:20;101271.06;;;6.53;86.29
33697;BME280;20031;43.416;23.232;2022-12-05T10:42:47;101268.47;;;6.53;85.93
33697;BME280;20031;43.416;23.232;2022-12-05T10:45:17;101264.16;;;6.53;86.36
33697;BME280;20031;43.416;23.232;2022-12-05T10:47:43;101266.84;;;6.52;85.71
33697;BME280;20031;43.416;23.232;2022-12-05T10:50:22;101266.00;;;6.51;85.80
33697;BME280;20031;43.416;23.232;2022-12-05T10:52:48;101257.00;;;6.57;85.79
33697;BME280;20031;43.416;23.232;2022-12-05T10:55:17;101259.59;;;6.57;85.60
33697;BME280;20031;43.416;23.232;2022-12-05T10:57:49;101249.44;;;6.54;85.21
33697;BME280;20031;43.416;23.232;2022-12-05T11:00:20;101253.69;;;6.55;85.98
33697;BME280;20031;43.416;23.232;2022-12-05T11:02:47;101245.50;;;6.60;85.69
33697;BME280;20031;43.416;23.232;2022-12-05T11:05:13;101249.56;;;6.64;85.38
33697;BME280;20031;43.416;23.232;2022-12-05T11:10:34;101234.31;;;6.72;85.67
33697;BME280;20031;43.416;23.232;2022-12-05T11:13:13;101230.69;;;6.75;85.08
33697;BME280;20031;43.416;23.232;2022-12-05T11:15:44;101225.94;;;6.81;85.07
33697;BME280;20031;43.416;23.232;2022-12-05T11:18:37;101224.97;;;6.82;84.46
33697;BME280;20031;43.416;23.232;2022-12-05T11:21:11;101221.94;;;6.88;85.15
33697;BME280;20031;43.416;23.232;2022-12-05T11:23:36;101214.09;;;6.90;84.63
33697;BME280;20031;43.416;23.232;2022-12-05T11:26:02;101215.84;;;6.89;84.00
33697;BME280;20031;43.416;23.232;2022-12-05T11:28:35;101209.84;;;6.89;84.54
33697;BME280;20031;43.416;23.232;2022-12-05T11:33:29;101201.06;;;6.91;84.28
33697;BME280;20031;43.416;23.232;2022-12-05T11:36:02;101197.63;;;6.91;83.98
33697;BME280;20031;43.416;23.232;2022-12-05T11:38:33;101202.78;;;6.91;83.82
33697;BME280;20031;43.416;23.232;2022-12-05T11:44:04;101203.44;;;6.82;83.36
33697;BME280;20031;43.416;23.232;2022-12-05T11:47:05;101205.41;;;6.78;83.54
33697;BME280;20031;43.416;23.232;2022-12-05T11:53:15;101188.78;;;6.70;83.51
33697;BME280;20031;43.416;23.232;2022-12-05T11:55:50;101189.06;;;6.65;83.27
33697;BME280;20031;43.416;23.232;2022-12-05T11:58:43;101176.34;;;6.62;83.55
33697;BME280;20031;43.416;23.232;2022-12-05T12:07:02;101173.47;;;6.55;83.94
33697;BME280;20031;43.416;23.232;2022-12-05T12:12:54;101170.16;;;6.53;84.20
33697;BME280;20031;43.416;23.232;2022-12-05T12:20:56;101177.63;;;6.45;83.97
33697;BME280;20031;43.416;23.232;2022-12-05T12:32:23;101165.63;;;6.31;84.90
33697;BME280;20031;43.416;23.232;2022-12-05T12:40:21;101159.44;;;6.21;84.88
33697;BME280;20031;43.416;23.232;2022-12-05T12:42:55;101157.91;;;6.19;85.36
33697;BME280;20031;43.416;23.232;2022-12-05T12:50:39;101156.44;;;6.15;85.64
33697;BME280;20031;43.416;23.232;2022-12-05T12:56:00;101157.38;;;6.14;86.14
33697;BME280;20031;43.416;23.232;2022-12-05T13:01:41;101160.06;;;6.12;86.15
33697;BME280;20031;43.416;23.232;2022-12-05T13:04:12;101161.72;;;6.13;86.13
33697;BME280;20031;43.416;23.232;2022-12-05T13:09:33;101156.94;;;6.07;86.24
33697;BME280;20031;43.416;23.232;2022-12-05T13:12:07;101154.47;;;6.06;86.17
33697;BME280;20031;43.416;23.232;2022-12-05T13:14:36;101164.78;;;6.06;86.57
33697;BME280;20031;43.416;23.232;2022-12-05T13:17:04;101150.25;;;6.05;86.65
33697;BME280;20031;43.416;23.232;2022-12-05T13:22:04;101151.16;;;6.04;86.73
33697;BME280;20031;43.416;23.232;2022-12-05T13:24:30;101162.31;;;6.05;87.19
33697;BME280;20031;43.416;23.232;2022-12-05T13:26:59;101149.50;;;6.03;87.28
33697;BME280;20031;43.416;23.232;2022-12-05T13:29:32;101156.53;;;6.01;86.96
33697;BME280;20031;43.416;23.232;2022-12-05T13:32:01;101153.25;;;5.99;86.76
33697;BME280;20031;43.416;23.232;2022-12-05T13:37:00;101151.56;;;5.98;87.72
33697;BME280;20031;43.416;23.232;2022-12-05T13:39:54;101145.66;;;5.96;87.33
33697;BME280;20031;43.416;23.232;2022-12-05T13:42:40;101147.66;;;5.93;87.99
33697;BME280;20031;43.416;23.232;2022-12-05T13:45:10;101146.72;;;5.94;87.66
33697;BME280;20031;43.416;23.232;2022-12-05T13:50:26;101141.56;;;5.94;88.15
33697;BME280;20031;43.416;23.232;2022-12-05T13:52:56;101147.84;;;5.90;88.49
33697;BME280;20031;43.416;23.232;2022-12-05T13:55:33;101146.19;;;5.89;88.20
33697;BME280;20031;43.416;23.232;2022-12-05T13:58:01;101147.22;;;5.86;88.68
33697;BME280;20031;43.416;23.232;2022-12-05T14:02:56;101140.63;;;5.82;88.44
33697;BME280;20031;43.416;23.232;2022-12-05T14:07:50;101141.84;;;5.77;88.84
33697;BME280;20031;43.416;23.232;2022-12-05T14:12:53;101137.69;;;5.74;89.29
33697;BME280;20031;43.416;23.232;2022-12-05T14:15:36;101141.94;;;5.75;89.72
33697;BME280;20031;43.416;23.232;2022-12-05T14:21:03;101131.69;;;5.74;89.45
33697;BME280;20031;43.416;23.232;2022-12-05T14:24:00;101130.03;;;5.73;89.91
33697;BME280;20031;43.416;23.232;2022-12-05T14:29:36;101129.41;;;5.69;89.64
33697;BME280;20031;43.416;23.232;2022-12-05T14:34:28;101132.09;;;5.68;90.06
33697;BME280;20031;43.416;23.232;2022-12-05T14:37:01;101128.78;;;5.66;89.95
33697;BME280;20031;43.416;23.232;2022-12-05T14:42:04;101124.63;;;5.63;90.32
33697;BME280;20031;43.416;23.232;2022-12-05T14:44:32;101121.94;;;5.65;90.70
33697;BME280;20031;43.416;23.232;2022-12-05T14:46:59;101110.78;;;5.64;90.79
33697;BME280;20031;43.416;23.232;2022-12-05T14:49:55;101110.78;;;5.64;90.52
33697;BME280;20031;43.416;23.232;2022-12-05T14:52:27;101113.56;;;5.61;90.74
33697;BME280;20031;43.416;23.232;2022-12-05T14:54:59;101105.81;;;5.61;90.60
33697;BME280;20031;43.416;23.232;2022-12-05T14:57:26;101111.09;;;5.60;91.42
33697;BME280;20031;43.416;23.232;2022-12-05T14:59:58;101118.13;;;5.58;91.15
33697;BME280;20031;43.416;23.232;2022-12-05T15:02:35;101123.38;;;5.56;90.98
33697;BME280;20031;43.416;23.232;2022-12-05T15:05:26;101115.63;;;5.56;91.70
33697;BME280;20031;43.416;23.232;2022-12-05T15:07:54;101118.31;;;5.55;91.29
33697;BME280;20031;43.416;23.232;2022-12-05T15:10:24;101118.41;;;5.54;91.35
33697;BME280;20031;43.416;23.232;2022-12-05T15:12:59;101111.59;;;5.53;91.96
33697;BME280;20031;43.416;23.232;2022-12-05T15:16:05;101107.38;;;5.52;92.02
33697;BME280;20031;43.416;23.232;2022-12-05T15:18:50;101115.22;;;5.50;91.88
33697;BME280;20031;43.416;23.232;2022-12-05T15:21:33;101111.91;;;5.48;92.03
33697;BME280;20031;43.416;23.232;2022-12-05T15:24:01;101119.66;;;5.48;91.94
33697;BME280;20031;43.416;23.232;2022-12-05T15:29:08;101111.91;;;5.48;91.80
33697;BME280;20031;43.416;23.232;2022-12-05T15:31:47;101121.41;;;5.48;92.17
33697;BME280;20031;43.416;23.232;2022-12-05T15:39:29;101115.31;;;5.49;92.80
33697;BME280;20031;43.416;23.232;2022-12-05T15:42:14;101114.50;;;5.48;92.39
33697;BME280;20031;43.416;23.232;2022-12-05T15:44:40;101119.66;;;5.48;92.81
33697;BME280;20031;43.416;23.232;2022-12-05T15:47:21;101119.66;;;5.48;92.20